createdAt,value
2022-10-07T00:00:07.739Z,9.50
2022-10-07T00:02:41.399Z,9.50
2022-10-07T00:05:12.744Z,9.50
2022-10-07T00:07:43.845Z,9.50
2022-10-07T00:10:14.835Z,9.50
2022-10-07T00:12:48.385Z,9.50
2022-10-07T00:15:19.884Z,9.20
2022-10-07T00:17:50.904Z,9.40
2022-10-07T00:20:21.903Z,9.40
2022-10-07T00:22:53.640Z,9.40
2022-10-07T00:25:26.011Z,9.40
2022-10-07T00:27:59.746Z,9.40
2022-10-07T00:30:33.648Z,9.40
2022-10-07T00:33:04.567Z,9.40
2022-10-07T00:35:38.153Z,9.30
2022-10-07T00:38:10.452Z,9.40
2022-10-07T00:40:41.449Z,9.30
2022-10-07T00:43:38.793Z,9.30
2022-10-07T00:46:15.229Z,9.30
2022-10-07T00:48:48.428Z,9.30
2022-10-07T00:51:20.607Z,9.40
2022-10-07T00:53:53.517Z,9.40
2022-10-07T00:56:26.187Z,9.40
2022-10-07T00:59:01.615Z,9.40
2022-10-07T01:01:32.525Z,9.40
2022-10-07T01:04:03.830Z,9.30
2022-10-07T01:06:34.752Z,9.30
2022-10-07T01:09:05.559Z,9.30
2022-10-07T01:11:45.918Z,9.30
2022-10-07T01:14:32.116Z,9.30
2022-10-07T01:17:07.483Z,9.20
2022-10-07T01:19:52.686Z,9.30
2022-10-07T01:22:33.617Z,9.30
2022-10-07T01:25:17.347Z,9.30
2022-10-07T01:27:54.937Z,9.20
2022-10-07T01:30:26.102Z,9.30
2022-10-07T01:33:02.555Z,9.30
2022-10-07T01:35:36.728Z,9.40
2022-10-07T01:38:12.282Z,9.40
2022-10-07T01:40:47.489Z,9.40
2022-10-07T01:43:23.659Z,9.40
2022-10-07T01:45:57.202Z,9.40
2022-10-07T01:48:30.710Z,9.40
2022-10-07T01:51:02.360Z,9.40
2022-10-07T01:53:51.376Z,9.40
2022-10-07T01:56:34.558Z,9.30
2022-10-07T01:59:30.086Z,9.30
2022-10-07T02:02:06.837Z,9.30
2022-10-07T02:04:50.666Z,9.30
2022-10-07T02:07:34.991Z,9.20
2022-10-07T02:10:15.089Z,9.20
2022-10-07T02:12:52.642Z,9.10
2022-10-07T02:15:32.471Z,9.50
2022-10-07T02:18:09.954Z,9.20
2022-10-07T02:20:42.821Z,9.20
2022-10-07T02:23:16.127Z,9.20
2022-10-07T02:25:50.148Z,9.20
2022-10-07T02:28:25.119Z,9.30
2022-10-07T02:31:04.323Z,9.60
2022-10-07T02:33:37.081Z,9.20
2022-10-07T02:36:10.773Z,9.20
2022-10-07T02:38:41.924Z,9.20
2022-10-07T02:41:31.285Z,9.10
2022-10-07T02:44:11.058Z,9.20
2022-10-07T02:46:50.365Z,9.20
2022-10-07T02:49:25.446Z,9.10
2022-10-07T02:52:00.266Z,9.10
2022-10-07T02:54:34.763Z,9.20
2022-10-07T02:57:11.189Z,9.20
2022-10-07T02:59:43.171Z,9.20
2022-10-07T03:02:24.138Z,9.10
2022-10-07T03:04:56.347Z,9.10
2022-10-07T03:07:28.050Z,9.10
2022-10-07T03:09:59.399Z,9.30
2022-10-07T03:12:30.226Z,9.10
2022-10-07T03:15:03.504Z,9.10
2022-10-07T03:17:37.119Z,9.00
2022-10-07T03:20:09.131Z,9.00
2022-10-07T03:22:42.539Z,9.00
2022-10-07T03:25:14.871Z,9.00
2022-10-07T03:27:50.561Z,9.00
2022-10-07T03:30:25.049Z,9.00
2022-10-07T03:32:58.395Z,9.00
2022-10-07T03:35:29.882Z,8.50
2022-10-07T03:38:01.351Z,9.00
2022-10-07T03:40:32.111Z,9.00
2022-10-07T03:43:02.888Z,8.90
2022-10-07T03:45:37.433Z,8.90
2022-10-07T03:48:10.777Z,8.90
2022-10-07T03:50:41.972Z,8.80
2022-10-07T03:53:14.692Z,8.80
2022-10-07T03:55:45.508Z,8.80
2022-10-07T03:58:16.708Z,8.80
2022-10-07T04:00:49.316Z,8.70
2022-10-07T04:03:22.851Z,8.70
2022-10-07T04:06:00.655Z,8.70
2022-10-07T04:08:33.290Z,8.80
2022-10-07T04:11:05.414Z,8.90
2022-10-07T04:13:36.729Z,9.10
2022-10-07T04:16:10.061Z,9.30
2022-10-07T04:18:44.544Z,9.40
2022-10-07T04:21:15.557Z,9.60
2022-10-07T04:23:47.802Z,9.60
2022-10-07T04:26:18.904Z,9.70
2022-10-07T04:28:50.133Z,9.70
2022-10-07T04:31:21.277Z,9.70
2022-10-07T04:33:55.245Z,9.70
2022-10-07T04:36:27.303Z,9.70
2022-10-07T04:38:59.471Z,9.70
2022-10-07T04:41:32.091Z,9.70
2022-10-07T04:44:03.272Z,9.70
2022-10-07T04:46:34.048Z,9.70
2022-10-07T04:49:10.629Z,9.80
2022-10-07T04:51:43.263Z,10.00
2022-10-07T04:54:14.074Z,9.80
2022-10-07T04:56:44.880Z,9.70
2022-10-07T04:59:22.432Z,9.80
2022-10-07T05:01:54.612Z,9.80
2022-10-07T05:04:30.278Z,9.80
2022-10-07T05:07:01.156Z,9.80
2022-10-07T05:09:33.811Z,9.90
2022-10-07T05:12:05.126Z,9.90
2022-10-07T05:14:35.938Z,9.90
2022-10-07T05:17:08.144Z,10.00
2022-10-07T05:19:41.698Z,10.00
2022-10-07T05:22:12.464Z,10.00
2022-10-07T05:24:45.623Z,10.10
2022-10-07T05:27:17.019Z,10.10
2022-10-07T05:29:47.809Z,10.30
2022-10-07T05:32:18.550Z,10.10
2022-10-07T05:34:55.687Z,10.00
2022-10-07T05:37:26.450Z,10.00
2022-10-07T05:39:57.247Z,10.00
2022-10-07T05:42:30.130Z,10.00
2022-10-07T05:45:05.198Z,9.90
2022-10-07T05:47:36.074Z,9.90
2022-10-07T05:50:13.429Z,9.80
2022-10-07T05:52:45.425Z,9.80
2022-10-07T05:55:17.459Z,9.70
2022-10-07T05:57:48.640Z,9.70
2022-10-07T06:00:22.851Z,9.70
2022-10-07T06:02:55.619Z,10.10
2022-10-07T06:05:29.119Z,9.60
2022-10-07T06:07:59.847Z,9.60
2022-10-07T06:10:43.173Z,9.60
2022-10-07T06:13:13.908Z,9.60
2022-10-07T06:15:44.677Z,9.60
2022-10-07T06:18:15.423Z,9.50
2022-10-07T06:20:56.112Z,9.60
2022-10-07T06:23:27.148Z,9.60
2022-10-07T06:25:59.058Z,9.30
2022-10-07T06:28:34.985Z,9.70
2022-10-07T06:31:07.417Z,9.70
2022-10-07T06:33:38.480Z,10.00
2022-10-07T06:36:14.946Z,9.90
2022-10-07T06:38:48.284Z,9.80
2022-10-07T06:41:19.391Z,9.90
2022-10-07T06:43:50.152Z,9.90
2022-10-07T06:46:22.422Z,9.90
2022-10-07T06:48:54.805Z,10.00
2022-10-07T06:51:28.190Z,10.10
2022-10-07T06:53:59.644Z,10.20
2022-10-07T06:56:30.984Z,10.20
2022-10-07T06:59:06.533Z,10.30
2022-10-07T07:01:39.082Z,10.40
2022-10-07T07:04:11.277Z,10.40
2022-10-07T07:06:48.494Z,10.80
2022-10-07T07:09:21.483Z,10.60
2022-10-07T07:11:56.433Z,10.70
2022-10-07T07:14:34.924Z,10.80
2022-10-07T07:17:08.416Z,10.90
2022-10-07T07:19:39.458Z,10.90
2022-10-07T07:22:14.907Z,11.10
2022-10-07T07:24:46.835Z,11.20
2022-10-07T07:27:17.651Z,11.30
2022-10-07T07:29:48.793Z,11.40
2022-10-07T07:32:25.709Z,11.60
2022-10-07T07:34:56.478Z,11.60
2022-10-07T07:37:30.269Z,11.70
2022-10-07T07:40:04.777Z,11.90
2022-10-07T07:42:35.661Z,12.00
2022-10-07T07:45:06.882Z,12.10
2022-10-07T07:47:37.915Z,12.30
2022-10-07T07:50:10.708Z,12.40
2022-10-07T07:52:44.111Z,12.50
2022-10-07T07:55:15.412Z,12.70
2022-10-07T07:57:46.421Z,12.80
2022-10-07T08:00:20.984Z,13.00
2022-10-07T08:02:54.192Z,13.10
2022-10-07T08:05:25.051Z,13.60
2022-10-07T08:07:58.403Z,13.40
2022-10-07T08:10:31.145Z,13.50
2022-10-07T08:13:01.956Z,13.60
2022-10-07T08:15:32.728Z,13.80
2022-10-07T08:18:05.924Z,13.90
2022-10-07T08:20:39.016Z,14.30
2022-10-07T08:23:12.343Z,13.80
2022-10-07T08:25:43.964Z,14.30
2022-10-07T08:28:14.988Z,14.20
2022-10-07T08:30:47.933Z,14.00
2022-10-07T08:33:19.129Z,14.30
2022-10-07T08:35:52.388Z,14.50
2022-10-07T08:38:26.268Z,14.40
2022-10-07T08:40:57.190Z,14.50
2022-10-07T08:43:28.543Z,14.70
2022-10-07T08:46:02.702Z,14.60
2022-10-07T08:48:39.060Z,14.70
2022-10-07T08:51:19.908Z,14.80
2022-10-07T08:53:56.124Z,14.90
2022-10-07T08:56:28.693Z,14.80
2022-10-07T08:59:15.871Z,14.90
2022-10-07T09:02:00.524Z,15.20
2022-10-07T09:04:41.695Z,14.90
2022-10-07T09:07:16.214Z,15.00
2022-10-07T09:09:55.736Z,15.10
2022-10-07T09:12:29.910Z,15.10
2022-10-07T09:15:05.101Z,15.60
2022-10-07T09:17:40.507Z,15.50
2022-10-07T09:20:18.515Z,15.40
2022-10-07T09:22:57.502Z,15.40
2022-10-07T09:25:35.683Z,15.40
2022-10-07T09:28:07.049Z,15.80
2022-10-07T09:30:37.881Z,15.90
2022-10-07T09:33:16.340Z,15.60
2022-10-07T09:35:57.527Z,15.70
2022-10-07T09:38:34.136Z,15.70
2022-10-07T09:41:20.788Z,15.80
2022-10-07T09:44:08.340Z,15.70
2022-10-07T09:46:49.568Z,15.80
2022-10-07T09:49:43.520Z,15.90
2022-10-07T09:52:22.389Z,16.00
2022-10-07T09:54:55.233Z,16.10
2022-10-07T09:57:34.524Z,16.20
2022-10-07T10:00:24.543Z,16.40
2022-10-07T10:03:04.778Z,16.40
2022-10-07T10:05:38.435Z,16.40
2022-10-07T10:08:22.450Z,16.90
2022-10-07T10:10:56.298Z,16.50
2022-10-07T10:13:33.908Z,16.60
2022-10-07T10:16:05.877Z,16.60
2022-10-07T10:18:44.505Z,16.60
2022-10-07T10:21:30.172Z,16.80
2022-10-07T10:24:06.090Z,17.00
2022-10-07T10:27:04.535Z,16.90
2022-10-07T10:29:47.337Z,17.30
2022-10-07T10:32:41.265Z,17.20
2022-10-07T10:35:18.720Z,17.10
2022-10-07T10:38:05.739Z,17.20
2022-10-07T10:40:40.631Z,17.20
2022-10-07T10:43:25.617Z,17.20
2022-10-07T10:46:13.036Z,17.30
2022-10-07T10:48:47.765Z,17.30
2022-10-07T10:51:34.688Z,17.50
2022-10-07T10:54:21.339Z,17.60
2022-10-07T10:56:58.325Z,17.60
2022-10-07T10:59:48.461Z,17.80
2022-10-07T11:02:46.980Z,17.90
2022-10-07T11:05:20.928Z,17.40
2022-10-07T11:07:55.000Z,17.70
2022-10-07T11:10:30.090Z,18.00
2022-10-07T11:13:06.784Z,17.80
2022-10-07T11:15:45.923Z,18.20
2022-10-07T11:18:35.100Z,17.90
2022-10-07T11:21:11.971Z,18.20
2022-10-07T11:23:51.268Z,18.40
2022-10-07T11:26:34.570Z,18.50
2022-10-07T11:29:18.145Z,18.50
2022-10-07T11:32:00.114Z,18.50
2022-10-07T11:34:41.416Z,18.60
2022-10-07T11:37:19.939Z,18.70
2022-10-07T11:39:53.444Z,19.10
2022-10-07T11:42:27.349Z,18.70
2022-10-07T11:45:03.238Z,18.70
2022-10-07T11:47:38.046Z,18.80
2022-10-07T11:50:22.976Z,18.70
2022-10-07T11:53:03.953Z,18.80
2022-10-07T11:55:40.806Z,18.90
2022-10-07T11:58:27.142Z,18.80
2022-10-07T12:01:28.923Z,18.70
2022-10-07T12:04:35.651Z,18.60
2022-10-07T12:07:40.457Z,18.60
2022-10-07T12:10:36.257Z,18.80
2022-10-07T12:13:37.108Z,18.60
2022-10-07T12:16:37.753Z,18.60
2022-10-07T12:19:23.293Z,18.60
2022-10-07T12:22:22.135Z,18.70
2022-10-07T12:25:22.803Z,18.90
2022-10-07T12:27:57.224Z,18.90
2022-10-07T12:30:51.632Z,18.90
2022-10-07T12:33:32.509Z,18.90
2022-10-07T12:36:31.613Z,19.40
2022-10-07T12:39:37.429Z,18.90
2022-10-07T12:42:14.864Z,18.80
2022-10-07T12:44:52.859Z,18.90
2022-10-07T12:47:28.261Z,18.90
2022-10-07T12:50:03.476Z,19.00
2022-10-07T12:52:48.294Z,19.00
2022-10-07T12:55:27.126Z,19.40
2022-10-07T12:58:22.043Z,19.10
2022-10-07T13:01:09.812Z,19.60
2022-10-07T13:04:14.205Z,19.40
2022-10-07T13:07:30.678Z,19.40
2022-10-07T13:10:32.041Z,19.40
2022-10-07T13:13:06.833Z,19.50
2022-10-07T13:15:44.585Z,19.50
2022-10-07T13:18:22.639Z,19.40
2022-10-07T13:21:04.928Z,19.40
2022-10-07T13:23:36.456Z,19.40
2022-10-07T13:26:10.286Z,19.40
2022-10-07T13:28:48.626Z,19.30
2022-10-07T13:31:22.935Z,19.40
2022-10-07T13:33:55.652Z,19.40
2022-10-07T13:36:29.036Z,19.50
2022-10-07T13:39:13.894Z,19.40
2022-10-07T13:41:53.346Z,19.40
2022-10-07T13:44:31.602Z,19.30
2022-10-07T13:47:04.765Z,19.00
2022-10-07T13:49:41.130Z,19.30
2022-10-07T13:52:23.290Z,19.20
2022-10-07T13:54:55.510Z,19.30
2022-10-07T13:57:31.114Z,19.30
2022-10-07T14:00:03.929Z,19.40
2022-10-07T14:02:40.021Z,19.30
2022-10-07T14:05:23.885Z,19.30
2022-10-07T14:07:56.475Z,19.40
2022-10-07T14:10:37.083Z,19.60
2022-10-07T14:13:10.967Z,20.00
2022-10-07T14:15:54.831Z,19.60
2022-10-07T14:18:29.751Z,19.50
2022-10-07T14:21:16.585Z,19.50
2022-10-07T14:23:52.538Z,19.40
2022-10-07T14:26:24.708Z,19.30
2022-10-07T14:28:58.263Z,19.90
2022-10-07T14:31:47.805Z,19.50
2022-10-07T14:34:33.103Z,19.50
2022-10-07T14:37:05.879Z,19.50
2022-10-07T14:39:39.427Z,19.60
2022-10-07T14:45:16.787Z,19.40
2022-10-07T14:47:47.697Z,19.30
2022-10-07T14:50:20.520Z,19.50
2022-10-07T14:52:54.074Z,19.20
2022-10-07T14:55:28.624Z,19.20
2022-10-07T14:58:00.625Z,19.10
2022-10-07T15:00:39.353Z,19.10
2022-10-07T15:03:10.465Z,19.00
2022-10-07T15:05:41.669Z,18.90
2022-10-07T15:08:14.592Z,19.10
2022-10-07T15:10:46.573Z,19.30
2022-10-07T15:13:18.209Z,18.70
2022-10-07T15:15:51.804Z,18.70
2022-10-07T15:18:22.543Z,18.60
2022-10-07T15:21:01.586Z,18.60
2022-10-07T15:23:34.705Z,18.60
2022-10-07T15:26:05.688Z,18.50
2022-10-07T15:28:37.333Z,18.60
2022-10-07T15:31:12.634Z,18.60
2022-10-07T15:33:46.916Z,18.60
2022-10-07T15:36:18.665Z,18.50
2022-10-07T15:38:49.431Z,18.50
2022-10-07T15:41:33.080Z,18.40
2022-10-07T15:44:05.692Z,18.40
2022-10-07T15:46:42.257Z,18.50
2022-10-07T15:49:13.348Z,18.30
2022-10-07T15:51:47.780Z,18.20
2022-10-07T15:54:18.987Z,18.20
2022-10-07T15:56:50.264Z,18.20
2022-10-07T15:59:21.066Z,18.10
2022-10-07T16:01:54.435Z,18.20
2022-10-07T16:04:26.271Z,18.00
2022-10-07T16:06:57.039Z,17.90
2022-10-07T16:09:29.735Z,17.90
2022-10-07T16:12:02.300Z,17.90
2022-10-07T16:14:33.092Z,17.80
2022-10-07T16:17:06.477Z,17.80
2022-10-07T16:19:37.351Z,17.70
2022-10-07T16:22:11.088Z,17.60
2022-10-07T16:24:42.333Z,17.60
2022-10-07T16:27:13.105Z,17.40
2022-10-07T16:29:56.418Z,17.40
2022-10-07T16:32:29.798Z,17.20
2022-10-07T16:35:00.487Z,17.10
2022-10-07T16:37:31.167Z,16.90
2022-10-07T16:40:01.942Z,16.80
2022-10-07T16:42:32.655Z,16.70
2022-10-07T16:45:05.189Z,16.60
2022-10-07T16:47:38.582Z,16.50
2022-10-07T16:50:11.285Z,16.90
2022-10-07T16:52:42.043Z,16.30
2022-10-07T16:55:13.183Z,16.10
2022-10-07T16:57:47.293Z,16.20
2022-10-07T17:00:18.749Z,15.90
2022-10-07T17:02:52.486Z,15.80
2022-10-07T17:05:23.283Z,15.70
2022-10-07T17:07:54.065Z,15.60
2022-10-07T17:10:24.785Z,15.50
2022-10-07T17:12:55.537Z,15.40
2022-10-07T17:15:27.143Z,15.20
2022-10-07T17:18:04.946Z,15.20
2022-10-07T17:20:40.283Z,15.00
2022-10-07T17:23:11.094Z,14.90
2022-10-07T17:25:46.435Z,14.80
2022-10-07T17:28:17.782Z,15.00
2022-10-07T17:30:48.935Z,14.70
2022-10-07T17:33:23.240Z,14.60
2022-10-07T17:35:54.050Z,14.70
2022-10-07T17:38:25.029Z,14.40
2022-10-07T17:40:55.850Z,14.30
2022-10-07T17:43:28.744Z,14.80
2022-10-07T17:46:03.175Z,14.40
2022-10-07T17:48:38.185Z,14.10
2022-10-07T17:51:09.712Z,14.00
2022-10-07T17:53:44.028Z,13.90
2022-10-07T17:56:17.416Z,13.90
2022-10-07T17:58:51.037Z,13.80
2022-10-07T18:01:27.044Z,13.80
2022-10-07T18:04:01.985Z,13.70
2022-10-07T18:06:35.807Z,13.60
2022-10-07T18:09:08.225Z,13.60
2022-10-07T18:11:51.824Z,13.50
2022-10-07T18:14:35.635Z,13.50
2022-10-07T18:17:07.731Z,13.40
2022-10-07T18:19:45.127Z,13.30
2022-10-07T18:22:24.654Z,13.20
2022-10-07T18:24:57.098Z,13.40
2022-10-07T18:27:28.221Z,13.10
2022-10-07T18:30:01.487Z,13.10
2022-10-07T18:32:34.645Z,13.40
2022-10-07T18:35:08.547Z,12.90
2022-10-07T18:37:39.517Z,12.90
2022-10-07T18:40:11.412Z,12.90
2022-10-07T18:42:44.064Z,12.90
2022-10-07T18:45:14.832Z,13.30
2022-10-07T18:47:45.741Z,13.40
2022-10-07T18:50:19.506Z,13.30
2022-10-07T18:52:50.248Z,13.40
2022-10-07T18:55:21.037Z,13.50
2022-10-07T18:57:51.734Z,13.80
2022-10-07T19:00:25.025Z,13.50
2022-10-07T19:02:55.735Z,13.40
2022-10-07T19:05:33.632Z,13.50
2022-10-07T19:08:07.230Z,13.60
2022-10-07T19:10:44.253Z,13.60
2022-10-07T19:13:27.733Z,13.60
2022-10-07T19:16:01.173Z,13.70
2022-10-07T19:18:32.092Z,13.90
2022-10-07T19:21:05.686Z,13.60
2022-10-07T19:23:36.462Z,13.60
2022-10-07T19:26:09.991Z,13.60
2022-10-07T19:28:42.405Z,13.60
2022-10-07T19:31:15.357Z,13.60
2022-10-07T19:33:46.891Z,13.60
2022-10-07T19:36:23.103Z,13.60
2022-10-07T19:38:56.399Z,13.60
2022-10-07T19:41:29.096Z,13.60
2022-10-07T19:44:03.204Z,13.50
2022-10-07T19:46:35.134Z,13.50
2022-10-07T19:49:07.177Z,13.50
2022-10-07T19:51:42.202Z,13.40
2022-10-07T19:54:13.152Z,13.40
2022-10-07T19:56:47.825Z,13.30
2022-10-07T19:59:18.697Z,13.30
2022-10-07T20:01:49.730Z,13.20
2022-10-07T20:04:23.174Z,13.20
2022-10-07T20:06:59.379Z,13.20
2022-10-07T20:09:30.471Z,13.10
2022-10-07T20:12:01.319Z,13.10
2022-10-07T20:14:32.397Z,13.00
2022-10-07T20:17:03.227Z,12.90
2022-10-07T20:19:35.556Z,13.00
2022-10-07T20:22:10.045Z,12.80
2022-10-07T20:24:42.644Z,12.70
2022-10-07T20:27:13.358Z,12.70
2022-10-07T20:29:56.433Z,12.70
2022-10-07T20:32:28.097Z,12.70
2022-10-07T20:34:59.971Z,12.70
2022-10-07T20:37:33.420Z,12.80
2022-10-07T20:40:16.773Z,12.80
2022-10-07T20:42:47.554Z,12.90
2022-10-07T20:45:20.345Z,12.90
2022-10-07T20:47:55.217Z,13.00
2022-10-07T20:50:25.948Z,13.20
2022-10-07T20:52:59.273Z,12.90
2022-10-07T20:55:34.038Z,12.90
2022-10-07T20:58:07.140Z,12.90
2022-10-07T21:00:38.312Z,12.90
2022-10-07T21:03:10.884Z,12.90
2022-10-07T21:05:42.733Z,12.90
2022-10-07T21:08:18.394Z,13.00
2022-10-07T21:10:49.171Z,13.00
2022-10-07T21:13:21.386Z,13.10
2022-10-07T21:15:52.105Z,13.00
2022-10-07T21:18:22.949Z,13.00
2022-10-07T21:20:56.974Z,12.90
2022-10-07T21:23:31.169Z,12.90
2022-10-07T21:26:06.745Z,12.90
2022-10-07T21:28:39.247Z,12.90
2022-10-07T21:31:13.530Z,13.00
2022-10-07T21:33:44.361Z,12.90
2022-10-07T21:36:17.245Z,12.90
2022-10-07T21:38:56.319Z,12.60
2022-10-07T21:41:31.173Z,12.90
2022-10-07T21:44:02.660Z,12.90
2022-10-07T21:46:35.187Z,12.90
2022-10-07T21:49:07.775Z,13.00
2022-10-07T21:51:45.903Z,12.90
2022-10-07T21:54:19.802Z,13.10
2022-10-07T21:56:50.524Z,12.90
2022-10-07T21:59:22.398Z,13.30
2022-10-07T22:01:53.185Z,12.90
2022-10-07T22:04:30.631Z,12.90
2022-10-07T22:07:13.868Z,12.90
2022-10-07T22:09:47.485Z,13.00
2022-10-07T22:12:22.827Z,12.90
2022-10-07T22:14:53.745Z,13.00
2022-10-07T22:17:26.011Z,12.90
2022-10-07T22:19:56.715Z,12.90
2022-10-07T22:22:27.452Z,13.00
2022-10-07T22:25:01.290Z,13.00
2022-10-07T22:27:32.196Z,13.20
2022-10-07T22:30:05.048Z,12.90
2022-10-07T22:32:35.775Z,12.90
2022-10-07T22:35:19.390Z,12.90
2022-10-07T22:37:51.616Z,12.80
2022-10-07T22:40:24.946Z,12.90
2022-10-07T22:42:55.819Z,12.80
2022-10-07T22:45:27.764Z,13.10
2022-10-07T22:47:58.732Z,12.70
2022-10-07T22:50:31.027Z,12.70
2022-10-07T22:53:01.750Z,12.80
2022-10-07T22:55:37.241Z,12.70
2022-10-07T22:58:07.951Z,12.70
2022-10-07T23:00:38.987Z,12.60
2022-10-07T23:03:12.650Z,12.60
2022-10-07T23:05:43.779Z,12.60
2022-10-07T23:08:14.443Z,12.60
2022-10-07T23:10:57.042Z,12.60
2022-10-07T23:13:28.716Z,12.80
2022-10-07T23:16:03.044Z,12.60
2022-10-07T23:18:34.501Z,12.60
2022-10-07T23:21:10.294Z,12.60
2022-10-07T23:23:42.463Z,12.60
2022-10-07T23:26:19.998Z,12.60
2022-10-07T23:28:51.863Z,12.70
2022-10-07T23:31:26.321Z,12.60
2022-10-07T23:33:58.612Z,12.60
2022-10-07T23:36:30.037Z,12.60
2022-10-07T23:39:02.222Z,12.60
2022-10-07T23:41:38.465Z,12.60
2022-10-07T23:44:09.229Z,12.70
2022-10-07T23:46:40.007Z,12.60
2022-10-07T23:49:13.084Z,12.60
2022-10-07T23:51:43.767Z,12.60
2022-10-07T23:54:14.509Z,12.60
2022-10-07T23:56:49.274Z,12.80
2022-10-07T23:59:20.086Z,12.60
